Time;durP1;ratioP1;P1;durP2;ratioP2;P2;SDS_P1;SDS_P2;PMS_P1;PMS_P2;Temp;Humidity;BMP_temperature;BMP_pressure;BME280_temperature;BME280_humidity;BME280_pressure;Samples;Min_cycle;Max_cycle;Signal;HPM_P1;HPM_P2
2023/05/24 00:02:05;;;;;;;19.45;4.22;;;;;;;;;;5025233;28;20291;-75
2023/05/24 00:04:31;;;;;;;21.33;4.13;;;;;;;;;;5030563;28;20236;-75
2023/05/24 00:06:57;;;;;;;22.80;4.38;;;;;;;;;;5034158;28;20194;-75
2023/05/24 00:09:22;;;;;;;21.65;4.00;;;;;;;;;;5029887;28;20192;-76
2023/05/24 00:11:48;;;;;;;21.80;5.47;;;;;;;;;;5023535;28;20243;-75
2023/05/24 00:14:13;;;;;;;28.58;4.55;;;;;;;;;;5034499;28;20197;-75
2023/05/24 00:16:38;;;;;;;21.55;4.85;;;;;;;;;;5034571;28;20661;-76
2023/05/24 00:19:04;;;;;;;25.17;5.45;;;;;;;;;;5031015;28;20182;-75
2023/05/24 00:21:30;;;;;;;24.85;5.15;;;;;;;;;;5032325;28;20193;-75
2023/05/24 00:23:56;;;;;;;24.40;4.63;;;;;;;;;;5035045;28;20243;-75
2023/05/24 00:26:22;;;;;;;24.88;4.65;;;;;;;;;;5037829;28;20225;-76
2023/05/24 00:28:47;;;;;;;22.73;4.72;;;;;;;;;;5030901;28;20189;-75
2023/05/24 00:31:13;;;;;;;24.35;5.97;;;;;;;;;;5041038;28;20186;-75
2023/05/24 00:33:39;;;;;;;22.55;4.68;;;;;;;;;;5029297;28;20194;-76
2023/05/24 00:36:05;;;;;;;25.77;5.60;;;;;;;;;;5035440;28;20196;-76
2023/05/24 00:38:30;;;;;;;25.80;4.85;;;;;;;;;;5023722;28;20242;-76
2023/05/24 00:40:56;;;;;;;18.95;4.50;;;;;;;;;;5038735;28;20231;-76
2023/05/24 00:43:22;;;;;;;16.17;4.40;;;;;;;;;;5025148;28;20346;-75
2023/05/24 00:45:51;;;;;;;20.15;5.05;;;;;;;;;;5028602;28;20278;-75
2023/05/24 00:48:17;;;;;;;18.48;4.53;;;;;;;;;;5028258;28;20206;-76
2023/05/24 00:50:42;;;;;;;21.77;4.97;;;;;;;;;;5026811;28;20194;-75
2023/05/24 00:53:08;;;;;;;22.20;6.07;;;;;;;;;;5027949;28;20198;-75
2023/05/24 00:55:35;;;;;;;23.48;5.20;;;;;;;;;;5028458;28;20260;-75
2023/05/24 00:58:01;;;;;;;25.33;5.32;;;;;;;;;;5032814;28;20220;-75
2023/05/24 01:00:28;;;;;;;23.75;4.80;;;;;;;;;;5013970;28;20615;-75
2023/05/24 01:02:53;;;;;;;25.13;5.10;;;;;;;;;;5030831;28;20182;-74
2023/05/24 01:05:20;;;;;;;22.40;5.13;;;;;;;;;;5027452;28;20608;-75
2023/05/24 01:07:52;;;;;;;22.10;5.25;;;;;;;;;;5023050;28;20713;-75
2023/05/24 01:10:43;;;;;;;19.75;5.47;;;;;;;;;;5028065;28;20202;-75
2023/05/24 01:13:11;;;;;;;19.00;4.65;;;;;;;;;;5025931;28;20571;-75
2023/05/24 01:15:57;;;;;;;32.72;5.15;;;;;;;;;;5023835;28;20202;-75
2023/05/24 01:18:31;;;;;;;18.30;4.57;;;;;;;;;;5035205;28;20197;-76
2023/05/24 01:21:37;;;;;;;21.33;5.15;;;;;;;;;;5029061;28;20312;-75
2023/05/24 01:24:27;;;;;;;20.55;4.65;;;;;;;;;;5028258;28;20220;-75
2023/05/24 01:27:13;;;;;;;22.15;4.85;;;;;;;;;;5031538;28;20205;-75
2023/05/24 01:29:39;;;;;;;26.45;5.20;;;;;;;;;;5041686;28;20204;-75
2023/05/24 01:32:05;;;;;;;23.52;5.25;;;;;;;;;;5023225;28;20219;-75
2023/05/24 01:34:31;;;;;;;24.80;5.70;;;;;;;;;;5025493;28;20197;-74
2023/05/24 01:36:56;;;;;;;33.85;6.00;;;;;;;;;;5026889;28;20273;-74
2023/05/24 01:39:26;;;;;;;29.10;5.95;;;;;;;;;;5026030;28;20360;-75
2023/05/24 01:42:23;;;;;;;26.35;7.05;;;;;;;;;;5026907;28;20609;-75
2023/05/24 01:45:05;;;;;;;22.33;4.82;;;;;;;;;;5026282;28;20217;-76
2023/05/24 01:47:45;;;;;;;29.70;6.05;;;;;;;;;;5034689;28;20213;-75
2023/05/24 01:50:33;;;;;;;26.25;5.93;;;;;;;;;;5032553;28;20193;-75
2023/05/24 01:53:03;;;;;;;30.35;5.65;;;;;;;;;;5024746;28;20221;-75
2023/05/24 01:55:31;;;;;;;22.35;5.18;;;;;;;;;;5025989;28;20190;-75
2023/05/24 01:58:03;;;;;;;34.17;7.05;;;;;;;;;;5015234;28;20202;-75
2023/05/24 02:00:30;;;;;;;32.35;6.97;;;;;;;;;;5022874;28;20952;-75
2023/05/24 02:02:56;;;;;;;33.92;7.05;;;;;;;;;;5024823;28;20252;-75
2023/05/24 02:05:22;;;;;;;31.08;6.45;;;;;;;;;;5023816;28;20737;-74
2023/05/24 02:07:47;;;;;;;27.00;6.18;;;;;;;;;;5025337;28;20289;-75
2023/05/24 02:10:13;;;;;;;25.70;6.45;;;;;;;;;;5020173;28;20194;-75
2023/05/24 02:12:38;;;;;;;22.88;6.35;;;;;;;;;;5035769;28;20196;-74
2023/05/24 02:15:04;;;;;;;32.90;5.88;;;;;;;;;;5026023;28;20186;-74
2023/05/24 02:17:31;;;;;;;31.35;6.53;;;;;;;;;;5027736;28;20193;-74
2023/05/24 02:19:58;;;;;;;30.52;5.13;;;;;;;;;;5010113;28;20194;-74
2023/05/24 02:22:24;;;;;;;24.40;5.13;;;;;;;;;;5014517;28;20638;-74
2023/05/24 02:24:50;;;;;;;33.65;5.60;;;;;;;;;;5022259;28;20274;-75
2023/05/24 02:27:15;;;;;;;36.22;5.78;;;;;;;;;;5035200;28;20285;-76
2023/05/24 02:29:40;;;;;;;35.47;6.60;;;;;;;;;;5035085;28;20195;-75
2023/05/24 02:32:06;;;;;;;26.00;5.70;;;;;;;;;;5027919;28;20190;-74
2023/05/24 02:34:32;;;;;;;22.02;5.15;;;;;;;;;;5027875;28;20205;-75
2023/05/24 02:36:57;;;;;;;26.52;5.78;;;;;;;;;;5025866;28;20397;-74
2023/05/24 02:39:23;;;;;;;23.20;5.20;;;;;;;;;;5027911;28;20233;-75
2023/05/24 02:41:48;;;;;;;20.63;4.75;;;;;;;;;;5029381;28;20190;-74
2023/05/24 02:44:13;;;;;;;29.27;5.97;;;;;;;;;;5028636;28;20182;-74
2023/05/24 02:46:39;;;;;;;24.88;5.47;;;;;;;;;;5018737;28;20198;-74
2023/05/24 02:49:04;;;;;;;28.92;5.60;;;;;;;;;;5032499;28;20274;-74
2023/05/24 02:51:31;;;;;;;33.00;6.45;;;;;;;;;;5038804;28;20547;-74
2023/05/24 02:53:57;;;;;;;28.85;6.32;;;;;;;;;;5030360;28;20190;-74
2023/05/24 02:56:22;;;;;;;20.08;5.38;;;;;;;;;;5045374;28;20324;-76
2023/05/24 02:58:47;;;;;;;27.58;5.35;;;;;;;;;;5036470;28;20593;-75
2023/05/24 03:01:13;;;;;;;24.08;5.20;;;;;;;;;;5033618;28;20221;-75
2023/05/24 03:03:38;;;;;;;39.58;5.95;;;;;;;;;;5030011;28;20610;-75
2023/05/24 03:06:05;;;;;;;20.30;5.70;;;;;;;;;;5028774;28;20265;-75
2023/05/24 03:08:31;;;;;;;25.60;5.72;;;;;;;;;;5028477;28;20216;-75
2023/05/24 03:10:57;;;;;;;28.30;6.13;;;;;;;;;;5012571;28;20186;-74
2023/05/24 03:13:22;;;;;;;25.00;5.45;;;;;;;;;;5028233;28;20216;-74
2023/05/24 03:15:48;;;;;;;29.30;6.50;;;;;;;;;;5028672;28;20262;-75
2023/05/24 03:18:13;;;;;;;25.55;5.80;;;;;;;;;;5030981;28;20178;-74
2023/05/24 03:20:38;;;;;;;28.98;7.22;;;;;;;;;;5020329;28;20203;-74
2023/05/24 03:23:04;;;;;;;27.95;5.95;;;;;;;;;;5025717;28;20189;-74
2023/05/24 03:25:29;;;;;;;22.58;5.95;;;;;;;;;;5028616;28;20331;-74
2023/05/24 03:27:55;;;;;;;32.25;7.95;;;;;;;;;;5025615;28;20214;-74
2023/05/24 03:30:20;;;;;;;25.25;5.65;;;;;;;;;;5039938;28;20197;-75
2023/05/24 03:32:45;;;;;;;25.35;5.88;;;;;;;;;;5029482;28;20186;-74
2023/05/24 03:35:11;;;;;;;32.05;6.20;;;;;;;;;;5037833;28;20339;-75
2023/05/24 03:37:37;;;;;;;34.15;6.03;;;;;;;;;;5032060;28;20217;-75
2023/05/24 03:40:03;;;;;;;25.27;5.72;;;;;;;;;;5028589;28;20303;-75
2023/05/24 03:42:29;;;;;;;32.17;6.10;;;;;;;;;;5034142;28;20299;-75
2023/05/24 03:44:54;;;;;;;28.85;6.28;;;;;;;;;;5027719;28;20273;-75
2023/05/24 03:47:20;;;;;;;30.67;6.00;;;;;;;;;;5038005;28;20572;-75
2023/05/24 03:49:45;;;;;;;29.67;6.53;;;;;;;;;;5022738;28;20197;-75
2023/05/24 03:52:11;;;;;;;29.67;5.30;;;;;;;;;;5017982;28;20194;-75
2023/05/24 03:54:36;;;;;;;29.88;6.70;;;;;;;;;;5030266;28;20193;-75
2023/05/24 03:57:02;;;;;;;33.75;6.60;;;;;;;;;;5024164;28;20559;-76
2023/05/24 03:59:27;;;;;;;30.40;6.45;;;;;;;;;;5030832;28;20198;-75
2023/05/24 04:01:53;;;;;;;27.85;6.55;;;;;;;;;;5028726;28;20225;-75
2023/05/24 04:04:18;;;;;;;25.17;6.25;;;;;;;;;;5032538;28;20190;-75
2023/05/24 04:06:44;;;;;;;27.02;6.15;;;;;;;;;;5028425;28;20204;-75
2023/05/24 04:09:09;;;;;;;29.98;6.47;;;;;;;;;;5024975;28;20221;-75
2023/05/24 04:11:35;;;;;;;30.13;6.47;;;;;;;;;;5030413;28;20205;-75
2023/05/24 04:14:01;;;;;;;33.15;6.50;;;;;;;;;;5024764;28;20190;-75
2023/05/24 04:16:27;;;;;;;33.90;6.65;;;;;;;;;;5023726;28;20186;-75
2023/05/24 04:18:54;;;;;;;31.13;6.53;;;;;;;;;;5028565;28;20665;-74
2023/05/24 04:21:20;;;;;;;24.45;6.20;;;;;;;;;;5029307;28;20190;-75
2023/05/24 04:23:45;;;;;;;26.95;7.43;;;;;;;;;;5031173;28;20186;-75
2023/05/24 04:26:11;;;;;;;28.67;6.32;;;;;;;;;;5024957;28;20226;-75
2023/05/24 04:28:37;;;;;;;36.67;7.05;;;;;;;;;;5019753;28;20609;-75
2023/05/24 04:31:05;;;;;;;25.98;6.63;;;;;;;;;;5026798;28;20202;-75
2023/05/24 04:33:31;;;;;;;27.15;6.43;;;;;;;;;;5030198;28;20288;-75
2023/05/24 04:35:57;;;;;;;30.13;5.78;;;;;;;;;;5029201;28;20209;-75
2023/05/24 04:38:23;;;;;;;23.73;5.78;;;;;;;;;;5029681;28;20654;-75
2023/05/24 04:40:49;;;;;;;24.60;6.18;;;;;;;;;;5028788;28;20244;-75
2023/05/24 04:43:14;;;;;;;33.28;6.20;;;;;;;;;;5027497;28;20190;-74
2023/05/24 04:45:40;;;;;;;28.35;5.75;;;;;;;;;;5025160;28;20197;-75
2023/05/24 04:48:05;;;;;;;32.47;7.07;;;;;;;;;;5027082;28;20206;-75
2023/05/24 04:50:31;;;;;;;26.73;5.88;;;;;;;;;;5025779;28;20588;-75
2023/05/24 04:52:57;;;;;;;25.77;5.75;;;;;;;;;;5038480;28;20186;-76
2023/05/24 04:55:22;;;;;;;32.22;6.93;;;;;;;;;;5031718;28;20198;-75
2023/05/24 04:57:47;;;;;;;27.60;6.43;;;;;;;;;;5035925;28;20608;-76
2023/05/24 05:00:13;;;;;;;36.88;6.40;;;;;;;;;;5030593;28;20198;-75
2023/05/24 05:02:38;;;;;;;23.65;6.10;;;;;;;;;;5028140;28;20233;-76
2023/05/24 05:05:04;;;;;;;38.30;6.93;;;;;;;;;;5029008;28;20194;-76
2023/05/24 05:07:30;;;;;;;25.35;5.80;;;;;;;;;;5023302;28;20207;-75
2023/05/24 05:09:55;;;;;;;28.65;6.32;;;;;;;;;;5029016;28;20212;-71
2023/05/24 05:12:21;;;;;;;29.90;6.03;;;;;;;;;;5024429;28;20198;-75
2023/05/24 05:14:46;;;;;;;30.77;5.90;;;;;;;;;;5036151;28;20281;-76
2023/05/24 05:17:12;;;;;;;29.35;5.82;;;;;;;;;;5035342;28;20190;-76
2023/05/24 05:19:37;;;;;;;35.33;6.05;;;;;;;;;;5034329;28;20197;-75
2023/05/24 05:22:03;;;;;;;24.65;6.78;;;;;;;;;;5024991;28;20179;-76
2023/05/24 05:24:28;;;;;;;32.78;7.05;;;;;;;;;;5035139;28;20653;-76
2023/05/24 05:26:54;;;;;;;27.15;6.18;;;;;;;;;;5017510;28;20218;-76
2023/05/24 05:29:19;;;;;;;30.23;6.32;;;;;;;;;;5025022;28;20699;-76
2023/05/24 05:31:45;;;;;;;26.83;6.22;;;;;;;;;;5015046;28;20268;-76
2023/05/24 05:34:11;;;;;;;20.58;5.47;;;;;;;;;;5015237;28;20194;-76
2023/05/24 05:36:41;;;;;;;26.00;5.47;;;;;;;;;;5027516;28;20213;-75
2023/05/24 05:39:10;;;;;;;39.00;6.32;;;;;;;;;;5021411;28;20372;-77
2023/05/24 05:41:41;;;;;;;30.67;5.80;;;;;;;;;;5020663;28;20608;-76
2023/05/24 05:44:06;;;;;;;29.92;6.43;;;;;;;;;;5030521;28;20189;-75
2023/05/24 05:46:32;;;;;;;21.02;5.25;;;;;;;;;;5011297;28;20208;-74
2023/05/24 05:48:57;;;;;;;21.63;5.30;;;;;;;;;;5019768;28;20193;-75
2023/05/24 05:51:22;;;;;;;19.98;5.15;;;;;;;;;;5036445;28;20198;-75
2023/05/24 05:53:48;;;;;;;23.30;5.05;;;;;;;;;;5018469;28;20193;-75
2023/05/24 05:56:13;;;;;;;23.48;5.50;;;;;;;;;;5025860;28;20201;-75
2023/05/24 05:58:38;;;;;;;23.13;4.95;;;;;;;;;;5020403;28;20194;-75
2023/05/24 06:01:04;;;;;;;27.35;6.20;;;;;;;;;;5028605;28;20217;-75
2023/05/24 06:03:29;;;;;;;27.58;6.22;;;;;;;;;;5036263;28;20209;-75
2023/05/24 06:05:55;;;;;;;25.65;5.43;;;;;;;;;;5020552;28;20190;-76
2023/05/24 06:08:20;;;;;;;19.25;5.45;;;;;;;;;;5013938;28;20313;-75
2023/05/24 06:10:45;;;;;;;26.65;5.32;;;;;;;;;;5023263;28;20206;-75
2023/05/24 06:13:12;;;;;;;23.52;4.20;;;;;;;;;;5021968;28;20716;-74
2023/05/24 06:15:37;;;;;;;20.92;4.88;;;;;;;;;;5019123;28;20244;-75
2023/05/24 06:18:02;;;;;;;18.30;4.53;;;;;;;;;;5026419;28;20189;-74
2023/05/24 06:20:28;;;;;;;20.02;4.68;;;;;;;;;;5026301;28;20289;-74
2023/05/24 06:22:54;;;;;;;22.83;5.15;;;;;;;;;;5028180;28;20190;-75
2023/05/24 06:25:19;;;;;;;24.83;5.25;;;;;;;;;;5033600;28;20197;-75
2023/05/24 06:27:45;;;;;;;23.52;5.15;;;;;;;;;;5011385;28;20589;-75
2023/05/24 06:30:12;;;;;;;27.50;5.13;;;;;;;;;;5017151;28;20182;-75
2023/05/24 06:32:37;;;;;;;25.25;5.05;;;;;;;;;;5015152;28;20245;-76
2023/05/24 06:35:03;;;;;;;22.20;4.97;;;;;;;;;;5024769;28;20659;-76
2023/05/24 06:37:29;;;;;;;24.92;4.22;;;;;;;;;;5009172;28;20178;-77
2023/05/24 06:39:55;;;;;;;19.60;3.60;;;;;;;;;;5027292;28;20267;-74
2023/05/24 06:42:20;;;;;;;20.88;3.97;;;;;;;;;;5017872;28;20189;-74
2023/05/24 06:44:46;;;;;;;18.38;3.95;;;;;;;;;;5024672;28;20195;-69
2023/05/24 06:47:11;;;;;;;22.65;4.40;;;;;;;;;;5022215;28;20284;-68
2023/05/24 06:49:37;;;;;;;20.60;3.85;;;;;;;;;;5018416;28;20724;-76
2023/05/24 06:52:03;;;;;;;18.90;4.38;;;;;;;;;;5038695;28;20672;-73
2023/05/24 06:54:29;;;;;;;15.13;3.53;;;;;;;;;;5028064;28;20201;-73
2023/05/24 06:56:54;;;;;;;17.60;4.10;;;;;;;;;;5023404;28;20183;-74
2023/05/24 06:59:20;;;;;;;14.93;3.83;;;;;;;;;;5029873;28;20642;-75
2023/05/24 07:01:45;;;;;;;19.85;4.60;;;;;;;;;;5035127;28;20700;-73
2023/05/24 07:04:11;;;;;;;19.50;3.60;;;;;;;;;;5005960;28;20619;-74
2023/05/24 07:06:36;;;;;;;19.95;3.67;;;;;;;;;;5020482;28;20691;-76
2023/05/24 07:09:03;;;;;;;20.55;4.22;;;;;;;;;;5024936;28;20191;-75
2023/05/24 07:11:29;;;;;;;20.05;4.50;;;;;;;;;;5020446;28;20220;-74
2023/05/24 07:13:55;;;;;;;21.00;4.72;;;;;;;;;;5019444;28;20187;-75
2023/05/24 07:16:20;;;;;;;20.42;3.90;;;;;;;;;;5021608;28;20217;-74
2023/05/24 07:18:46;;;;;;;20.70;4.25;;;;;;;;;;5014655;28;20650;-74
2023/05/24 07:21:11;;;;;;;22.42;5.50;;;;;;;;;;5031983;28;20204;-74
2023/05/24 07:23:37;;;;;;;19.77;3.58;;;;;;;;;;5028232;28;20190;-75
2023/05/24 07:26:03;;;;;;;21.55;3.90;;;;;;;;;;5030305;28;20197;-76
2023/05/24 07:28:29;;;;;;;21.77;4.30;;;;;;;;;;5028869;28;20281;-72
2023/05/24 07:30:54;;;;;;;21.83;4.03;;;;;;;;;;5039035;28;20270;-74
2023/05/24 07:33:19;;;;;;;20.63;4.95;;;;;;;;;;5027975;28;20269;-74
2023/05/24 07:35:50;;;;;;;14.60;4.03;;;;;;;;;;5027341;28;20182;-73
2023/05/24 07:38:16;;;;;;;19.63;3.80;;;;;;;;;;5027305;28;20232;-70
2023/05/24 07:40:41;;;;;;;19.88;4.13;;;;;;;;;;5020594;28;20265;-74
2023/05/24 07:43:07;;;;;;;19.48;4.38;;;;;;;;;;5023570;28;20287;-74
2023/05/24 07:45:32;;;;;;;12.82;3.47;;;;;;;;;;5020301;28;20201;-74
2023/05/24 07:47:58;;;;;;;18.77;4.28;;;;;;;;;;5022214;28;20232;-73
2023/05/24 07:50:24;;;;;;;19.48;4.20;;;;;;;;;;5018914;28;20600;-73
2023/05/24 07:52:50;;;;;;;14.13;3.38;;;;;;;;;;5048343;28;20178;-73
2023/05/24 07:55:15;;;;;;;22.50;4.35;;;;;;;;;;5032788;28;20650;-74
2023/05/24 07:57:40;;;;;;;23.63;3.95;;;;;;;;;;5030455;28;20181;-72
2023/05/24 08:00:13;;;;;;;17.33;4.10;;;;;;;;;;5043917;28;20252;-74
2023/05/24 08:02:42;;;;;;;15.68;4.00;;;;;;;;;;5029976;28;20275;-74
2023/05/24 08:05:11;;;;;;;16.48;3.63;;;;;;;;;;5038121;28;20256;-74
2023/05/24 08:07:37;;;;;;;20.02;4.53;;;;;;;;;;5044100;28;20202;-73
2023/05/24 08:10:03;;;;;;;22.63;3.55;;;;;;;;;;5032488;28;20190;-73
2023/05/24 08:12:29;;;;;;;21.00;4.18;;;;;;;;;;5027096;28;20190;-73
2023/05/24 08:14:55;;;;;;;21.65;4.00;;;;;;;;;;5033944;28;20259;-74
2023/05/24 08:17:20;;;;;;;14.57;3.17;;;;;;;;;;5028427;28;20178;-68
2023/05/24 08:19:46;;;;;;;19.08;3.72;;;;;;;;;;5031169;28;20588;-74
2023/05/24 08:22:11;;;;;;;20.63;3.95;;;;;;;;;;5040692;28;20196;-72
2023/05/24 08:24:37;;;;;;;15.57;3.83;;;;;;;;;;5044313;28;20220;-72
2023/05/24 08:27:03;;;;;;;15.43;3.28;;;;;;;;;;5041074;28;20708;-71
2023/05/24 08:29:29;;;;;;;11.95;3.13;;;;;;;;;;5030493;28;20213;-73
2023/05/24 08:31:54;;;;;;;14.57;3.35;;;;;;;;;;5039382;28;20235;-70
2023/05/24 08:34:20;;;;;;;12.20;2.80;;;;;;;;;;5021609;28;20199;-72
2023/05/24 08:36:46;;;;;;;13.68;3.28;;;;;;;;;;5035971;28;20191;-72
2023/05/24 08:39:11;;;;;;;13.65;3.20;;;;;;;;;;5019518;28;20241;-72
2023/05/24 08:41:37;;;;;;;12.38;3.33;;;;;;;;;;5045546;28;20182;-71
2023/05/24 08:44:06;;;;;;;15.18;3.70;;;;;;;;;;5050349;28;20239;-73
2023/05/24 08:46:35;;;;;;;12.88;3.10;;;;;;;;;;5020807;28;20186;-73
2023/05/24 08:49:02;;;;;;;12.70;3.05;;;;;;;;;;5030517;28;20208;-72
2023/05/24 08:51:29;;;;;;;10.88;2.83;;;;;;;;;;5033215;28;20181;-71
2023/05/24 08:53:57;;;;;;;16.95;3.45;;;;;;;;;;5043340;28;20543;-71
2023/05/24 08:56:25;;;;;;;16.23;3.22;;;;;;;;;;5024043;28;20403;-72
2023/05/24 08:58:51;;;;;;;11.00;2.40;;;;;;;;;;5044250;28;20182;-70
2023/05/24 09:01:16;;;;;;;13.00;3.40;;;;;;;;;;5045206;28;20209;-72
2023/05/24 09:03:44;;;;;;;11.60;2.88;;;;;;;;;;5048753;28;20715;-72
2023/05/24 09:06:11;;;;;;;13.15;2.78;;;;;;;;;;5024950;28;20178;-72
2023/05/24 09:08:37;;;;;;;16.02;3.00;;;;;;;;;;5033205;28;20267;-73
2023/05/24 09:11:05;;;;;;;11.35;2.55;;;;;;;;;;5030341;28;20201;-71
2023/05/24 09:13:31;;;;;;;10.02;3.10;;;;;;;;;;5028438;28;20201;-72
2023/05/24 09:15:58;;;;;;;11.05;2.63;;;;;;;;;;5038282;28;20187;-72
2023/05/24 09:18:24;;;;;;;14.32;3.97;;;;;;;;;;5023441;28;20609;-72
2023/05/24 09:20:50;;;;;;;15.43;3.05;;;;;;;;;;5012108;28;20265;-71
2023/05/24 09:23:16;;;;;;;11.57;3.50;;;;;;;;;;5036756;28;20276;-72
2023/05/24 09:25:46;;;;;;;19.75;4.00;;;;;;;;;;5038541;28;20510;-72
2023/05/24 09:28:13;;;;;;;17.85;3.72;;;;;;;;;;5028182;28;20209;-72
2023/05/24 09:30:41;;;;;;;16.80;3.45;;;;;;;;;;5040236;28;20318;-72
2023/05/24 09:33:07;;;;;;;9.48;3.20;;;;;;;;;;5035589;28;20177;-73
2023/05/24 09:35:32;;;;;;;16.75;3.25;;;;;;;;;;5049801;28;20197;-74
2023/05/24 09:37:59;;;;;;;12.45;2.63;;;;;;;;;;5032426;28;20193;-72
2023/05/24 09:40:26;;;;;;;10.95;2.80;;;;;;;;;;5028710;28;20197;-72
2023/05/24 09:43:08;;;;;;;11.30;3.25;;;;;;;;;;5028475;28;20850;-73
2023/05/24 09:45:45;;;;;;;19.55;3.47;;;;;;;;;;5045986;28;20271;-71
2023/05/24 09:48:15;;;;;;;11.10;2.60;;;;;;;;;;5027916;28;20205;-72
2023/05/24 09:50:41;;;;;;;10.15;2.90;;;;;;;;;;5019938;28;20194;-73
2023/05/24 09:53:07;;;;;;;14.18;3.35;;;;;;;;;;5027252;28;20690;-72
2023/05/24 09:55:35;;;;;;;11.85;2.88;;;;;;;;;;5022399;28;20196;-74
2023/05/24 09:58:11;;;;;;;7.70;2.65;;;;;;;;;;5032559;28;20293;-72
2023/05/24 10:00:40;;;;;;;11.02;2.72;;;;;;;;;;5027426;28;20212;-73
2023/05/24 10:03:10;;;;;;;11.95;2.65;;;;;;;;;;5039406;28;20200;-70
2023/05/24 10:05:36;;;;;;;11.50;2.88;;;;;;;;;;5039450;28;20279;-73
2023/05/24 10:08:03;;;;;;;13.40;2.60;;;;;;;;;;5028735;28;20206;-73
2023/05/24 10:10:30;;;;;;;11.73;2.70;;;;;;;;;;5018530;28;20181;-71
2023/05/24 10:12:57;;;;;;;12.45;3.15;;;;;;;;;;5038896;28;20600;-72
2023/05/24 10:15:24;;;;;;;10.43;2.65;;;;;;;;;;5028288;28;20274;-73
2023/05/24 10:17:53;;;;;;;10.25;2.75;;;;;;;;;;5034347;28;20619;-72
2023/05/24 10:20:19;;;;;;;8.50;2.25;;;;;;;;;;5028734;28;20182;-72
2023/05/24 10:22:48;;;;;;;13.65;3.20;;;;;;;;;;5031686;28;20327;-74
2023/05/24 10:25:22;;;;;;;9.93;2.65;;;;;;;;;;5031530;28;20279;-72
2023/05/24 10:27:50;;;;;;;12.95;3.05;;;;;;;;;;5027296;28;20206;-72
2023/05/24 10:30:25;;;;;;;11.13;3.20;;;;;;;;;;5021299;28;20223;-72
2023/05/24 10:32:52;;;;;;;13.32;2.65;;;;;;;;;;5030257;28;20209;-71
2023/05/24 10:35:19;;;;;;;12.07;3.33;;;;;;;;;;5017930;28;20195;-70
2023/05/24 10:37:48;;;;;;;12.73;3.70;;;;;;;;;;5022145;28;20182;-73
2023/05/24 10:40:19;;;;;;;12.30;2.97;;;;;;;;;;5023148;28;20305;-72
2023/05/24 10:42:45;;;;;;;7.90;2.53;;;;;;;;;;5023247;28;20659;-71
2023/05/24 10:45:34;;;;;;;8.95;2.70;;;;;;;;;;5033638;28;20181;-72
2023/05/24 10:48:12;;;;;;;8.75;2.42;;;;;;;;;;5025378;28;20198;-73
2023/05/24 10:50:38;;;;;;;11.98;3.10;;;;;;;;;;5008452;28;20183;-72
2023/05/24 10:53:17;;;;;;;10.05;3.08;;;;;;;;;;5031961;28;20179;-70
2023/05/24 10:56:05;;;;;;;14.93;3.92;;;;;;;;;;5025656;28;20288;-72
2023/05/24 10:58:47;;;;;;;12.85;3.38;;;;;;;;;;5021477;28;20191;-72
2023/05/24 11:01:23;;;;;;;13.38;3.15;;;;;;;;;;5028940;28;20218;-70
2023/05/24 11:03:48;;;;;;;11.30;2.78;;;;;;;;;;5019552;28;20186;-69
2023/05/24 11:06:14;;;;;;;12.02;2.72;;;;;;;;;;5027982;28;20549;-68
2023/05/24 11:08:42;;;;;;;16.42;3.00;;;;;;;;;;5027842;28;20256;-71
2023/05/24 11:11:10;;;;;;;8.18;2.60;;;;;;;;;;5029761;28;20186;-72
2023/05/24 11:13:36;;;;;;;10.88;2.72;;;;;;;;;;5030710;28;20268;-72
2023/05/24 11:16:02;;;;;;;9.70;2.50;;;;;;;;;;5018253;28;20605;-73
2023/05/24 11:18:27;;;;;;;12.02;2.80;;;;;;;;;;5025134;28;20283;-73
2023/05/24 11:20:53;;;;;;;16.10;3.33;;;;;;;;;;5024967;28;20562;-73
2023/05/24 11:23:19;;;;;;;9.98;2.85;;;;;;;;;;5040211;28;20196;-73
2023/05/24 11:25:46;;;;;;;14.05;3.10;;;;;;;;;;5028531;28;20194;-73
2023/05/24 11:28:12;;;;;;;13.38;2.90;;;;;;;;;;5044201;28;20223;-72
2023/05/24 11:30:44;;;;;;;13.77;3.03;;;;;;;;;;5037777;28;20560;-72
2023/05/24 11:33:17;;;;;;;11.32;3.28;;;;;;;;;;5025723;28;20670;-73
2023/05/24 11:35:43;;;;;;;12.25;3.53;;;;;;;;;;5044353;28;20863;-72
2023/05/24 11:38:12;;;;;;;12.35;3.20;;;;;;;;;;5033050;28;20186;-72
2023/05/24 11:40:45;;;;;;;14.18;3.15;;;;;;;;;;5027740;28;20183;-72
2023/05/24 11:43:15;;;;;;;16.02;3.38;;;;;;;;;;5035715;28;20209;-72
2023/05/24 11:45:44;;;;;;;13.60;2.78;;;;;;;;;;5043302;28;20193;-72
2023/05/24 11:48:10;;;;;;;12.15;3.08;;;;;;;;;;5031837;28;20206;-73
2023/05/24 11:50:44;;;;;;;16.35;3.08;;;;;;;;;;5041926;28;20186;-73
2023/05/24 11:53:11;;;;;;;14.05;3.00;;;;;;;;;;5038003;28;20178;-70
2023/05/24 11:55:38;;;;;;;9.98;3.03;;;;;;;;;;5037821;28;20726;-73
2023/05/24 11:58:10;;;;;;;11.95;2.80;;;;;;;;;;5030239;28;20185;-68
2023/05/24 12:00:36;;;;;;;12.38;3.22;;;;;;;;;;5045216;28;20209;-70
2023/05/24 12:03:06;;;;;;;7.88;2.50;;;;;;;;;;5035864;28;20615;-73
2023/05/24 12:05:31;;;;;;;12.25;3.67;;;;;;;;;;5050048;28;20179;-70
2023/05/24 12:08:04;;;;;;;11.73;3.03;;;;;;;;;;5036109;28;20211;-71
2023/05/24 12:10:37;;;;;;;15.27;3.30;;;;;;;;;;5021052;28;20526;-72
2023/05/24 12:13:03;;;;;;;8.43;3.13;;;;;;;;;;5033458;28;20649;-72
2023/05/24 12:15:29;;;;;;;11.77;3.22;;;;;;;;;;5041934;28;20562;-74
2023/05/24 12:17:56;;;;;;;15.00;2.75;;;;;;;;;;5033388;28;20213;-73
2023/05/24 12:20:22;;;;;;;9.02;2.67;;;;;;;;;;5025148;28;20187;-72
2023/05/24 12:22:51;;;;;;;13.55;3.15;;;;;;;;;;5031394;28;20208;-72
2023/05/24 12:25:21;;;;;;;15.30;2.92;;;;;;;;;;5032344;28;20190;-72
2023/05/24 12:27:55;;;;;;;11.50;3.08;;;;;;;;;;5032106;28;20201;-73
2023/05/24 12:30:27;;;;;;;10.50;3.55;;;;;;;;;;5045379;28;20190;-70
2023/05/24 12:32:53;;;;;;;9.35;2.65;;;;;;;;;;5027289;28;20247;-72
2023/05/24 12:35:19;;;;;;;13.73;3.20;;;;;;;;;;5041650;28;20257;-72
2023/05/24 12:37:45;;;;;;;13.45;3.47;;;;;;;;;;5029563;28;20681;-73
2023/05/24 12:40:19;;;;;;;7.93;2.78;;;;;;;;;;5036086;28;20224;-73
2023/05/24 12:42:55;;;;;;;10.23;2.90;;;;;;;;;;5028197;28;20183;-74
2023/05/24 12:45:23;;;;;;;8.25;2.67;;;;;;;;;;5038205;28;20173;-73
2023/05/24 12:47:50;;;;;;;8.45;2.40;;;;;;;;;;5025674;28;20201;-71
2023/05/24 12:50:16;;;;;;;7.68;2.70;;;;;;;;;;5034822;28;20235;-70
2023/05/24 12:52:45;;;;;;;11.15;2.92;;;;;;;;;;5045494;28;20430;-71
2023/05/24 12:55:11;;;;;;;10.32;3.47;;;;;;;;;;5030027;28;20186;-72
2023/05/24 12:57:36;;;;;;;9.40;2.92;;;;;;;;;;5026587;28;20257;-73
2023/05/24 13:00:04;;;;;;;9.48;2.90;;;;;;;;;;5034516;28;20200;-72
2023/05/24 13:02:30;;;;;;;11.40;2.95;;;;;;;;;;5023722;28;20194;-71
2023/05/24 13:04:55;;;;;;;7.97;2.80;;;;;;;;;;5032164;28;20261;-71
2023/05/24 13:07:21;;;;;;;7.25;3.10;;;;;;;;;;5026234;28;20221;-71
2023/05/24 13:09:48;;;;;;;9.00;2.78;;;;;;;;;;5021499;28;20246;-69
2023/05/24 13:12:13;;;;;;;7.45;3.00;;;;;;;;;;5030994;28;20283;-72
2023/05/24 13:14:38;;;;;;;8.68;3.15;;;;;;;;;;5029543;28;20313;-72
2023/05/24 13:17:04;;;;;;;11.70;2.72;;;;;;;;;;5035551;28;20182;-72
2023/05/24 13:19:30;;;;;;;12.95;3.53;;;;;;;;;;5018608;28;20194;-73
2023/05/24 13:21:55;;;;;;;8.05;2.58;;;;;;;;;;5028343;28;20185;-72
2023/05/24 13:24:22;;;;;;;8.70;2.90;;;;;;;;;;5034002;28;20247;-72
2023/05/24 13:26:47;;;;;;;10.43;2.90;;;;;;;;;;5027627;28;20194;-70
2023/05/24 13:29:13;;;;;;;9.40;2.83;;;;;;;;;;5036915;28;20209;-72
2023/05/24 13:31:39;;;;;;;11.13;2.53;;;;;;;;;;5032781;28;20661;-71
2023/05/24 13:34:05;;;;;;;8.00;2.78;;;;;;;;;;5021463;28;20218;-71
2023/05/24 13:36:30;;;;;;;10.55;3.05;;;;;;;;;;5034471;28;20193;-71
2023/05/24 13:38:57;;;;;;;13.38;2.95;;;;;;;;;;5032204;28;20283;-71
2023/05/24 13:41:23;;;;;;;10.65;2.95;;;;;;;;;;5030103;28;20200;-72
2023/05/24 13:43:51;;;;;;;8.57;2.95;;;;;;;;;;5028371;28;20202;-71
2023/05/24 13:46:17;;;;;;;7.95;2.85;;;;;;;;;;5021187;28;20759;-72
2023/05/24 13:48:42;;;;;;;9.35;2.63;;;;;;;;;;5026871;28;20206;-74
2023/05/24 13:51:08;;;;;;;10.25;3.53;;;;;;;;;;5017271;28;20181;-74
2023/05/24 13:53:33;;;;;;;11.00;3.38;;;;;;;;;;5021310;28;20257;-72
2023/05/24 13:55:58;;;;;;;11.45;3.15;;;;;;;;;;5015421;28;20684;-73
2023/05/24 13:58:24;;;;;;;9.95;3.47;;;;;;;;;;5026808;28;20225;-73
2023/05/24 14:00:49;;;;;;;7.15;2.90;;;;;;;;;;5029752;28;20211;-73
2023/05/24 14:03:15;;;;;;;7.65;2.70;;;;;;;;;;5026699;28;20194;-73
2023/05/24 14:05:40;;;;;;;6.53;2.88;;;;;;;;;;5014589;28;20198;-73
2023/05/24 14:08:06;;;;;;;8.93;2.65;;;;;;;;;;5030873;28;20197;-73
2023/05/24 14:10:35;;;;;;;7.40;2.72;;;;;;;;;;5033015;28;20245;-73
2023/05/24 14:13:01;;;;;;;8.98;2.63;;;;;;;;;;5020209;28;20622;-72
2023/05/24 14:15:26;;;;;;;11.27;2.72;;;;;;;;;;5029052;28;20205;-72
2023/05/24 14:17:52;;;;;;;9.32;2.78;;;;;;;;;;5021076;28;20186;-71
2023/05/24 14:20:17;;;;;;;9.45;2.70;;;;;;;;;;5015636;28;20205;-71
2023/05/24 14:22:42;;;;;;;7.85;3.00;;;;;;;;;;5026781;28;20681;-73
2023/05/24 14:25:09;;;;;;;11.30;3.08;;;;;;;;;;5028626;28;20198;-72
2023/05/24 14:27:34;;;;;;;10.50;2.92;;;;;;;;;;5029946;28;20234;-69
2023/05/24 14:29:59;;;;;;;7.82;2.65;;;;;;;;;;5042214;28;20350;-71
2023/05/24 14:32:25;;;;;;;8.73;2.65;;;;;;;;;;5037957;28;20190;-72